Time;durP1;ratioP1;P1;durP2;ratioP2;P2;SDS_P1;SDS_P2;PMS_P1;PMS_P2;Temp;Humidity;BMP_temperature;BMP_pressure;BME280_temperature;BME280_humidity;BME280_pressure;Samples;Min_cycle;Max_cycle;Signal;HPM_P1;HPM_P2
2022/05/21 00:00:38;;;;;;;9.67;4.40;;;;;;;13.35;79.62;99497.41;5031836;28;20178;-86
2022/05/21 00:03:05;;;;;;;9.03;4.57;;;;;;;12.88;78.48;99431.34;5031767;28;20193;-87
2022/05/21 00:05:35;;;;;;;8.77;4.43;;;;;;;14.38;78.92;99696.03;5031507;28;20630;-87
2022/05/21 00:08:01;;;;;;;10.83;4.20;;;;;;;13.40;77.13;99520.47;5032570;28;20158;-86
2022/05/21 00:10:30;;;;;;;6.43;4.13;;;;;;;14.31;77.31;99691.53;5032562;28;20169;-86
2022/05/21 00:12:56;;;;;;;6.40;3.90;;;;;;;14.34;75.31;99682.31;5032237;28;20666;-87
2022/05/21 00:15:24;;;;;;;8.77;3.93;;;;;;;14.30;75.71;99679.59;5036130;28;20169;-87
2022/05/21 00:17:49;;;;;;;8.73;4.10;;;;;;;14.20;75.17;99683.53;5048853;28;20160;-86
2022/05/21 00:23:08;;;;;;;6.23;3.77;;;;;;;13.62;74.61;99567.84;5043754;28;20238;-87
2022/05/21 00:25:34;;;;;;;6.33;3.80;;;;;;;13.92;75.08;99630.81;5052768;28;20202;-86
2022/05/21 00:27:59;;;;;;;9.20;4.10;;;;;;;13.01;74.18;99464.88;5052535;28;20199;-86
2022/05/21 00:30:24;;;;;;;7.00;3.90;;;;;;;11.25;74.98;99167.41;5052260;28;20161;-86
2022/05/21 00:32:50;;;;;;;8.23;4.10;;;;;;;12.81;75.28;99425.19;5051316;28;20233;-86
2022/05/21 00:35:15;;;;;;;7.53;4.33;;;;;;;13.05;77.89;99551.38;5052451;28;20181;-86
2022/05/21 00:37:41;;;;;;;6.43;4.10;;;;;;;10.20;77.76;99078.94;5053098;28;20162;-87
2022/05/21 00:40:07;;;;;;;7.43;4.00;;;;;;;11.49;78.48;99263.75;5052360;28;20248;-85
2022/05/21 00:42:33;;;;;;;7.23;3.70;;;;;;;11.53;77.56;99278.31;5050992;28;20165;-87
2022/05/21 00:44:58;;;;;;;9.63;3.80;;;;;;;12.40;77.13;99428.78;5051903;28;20630;-87
2022/05/21 00:47:23;;;;;;;8.07;4.00;;;;;;;11.66;77.83;99290.63;5051619;28;20233;-88
2022/05/21 00:49:49;;;;;;;7.23;4.00;;;;;;;13.43;77.72;99587.53;5052834;28;20172;-87
2022/05/21 00:52:19;;;;;;;6.77;3.60;;;;;;;14.04;77.61;99689.78;5043624;28;20206;-87
2022/05/21 00:54:48;;;;;;;7.53;3.97;;;;;;;12.53;77.22;99457.13;5030962;28;20560;-86
2022/05/21 00:57:23;;;;;;;11.13;3.90;;;;;;;13.95;78.75;99684.34;5031088;28;20563;-86
2022/05/21 00:59:54;;;;;;;9.40;3.67;;;;;;;12.56;78.38;99464.88;5030982;28;20554;-86
2022/05/21 01:02:24;;;;;;;8.77;4.40;;;;;;;12.30;76.82;99428.38;5032065;28;20629;-86
2022/05/21 01:04:50;;;;;;;6.30;3.87;;;;;;;14.09;76.51;99683.16;5030424;28;20162;-86
2022/05/21 01:07:16;;;;;;;7.87;4.57;;;;;;;13.16;76.89;99529.78;5044358;28;20213;-86
2022/05/21 01:09:53;;;;;;;8.77;4.00;;;;;;;11.15;78.32;99180.56;5044235;28;20241;-86
2022/05/21 01:12:20;;;;;;;10.87;3.83;;;;;;;12.08;79.49;99339.56;5037341;28;20220;-86
2022/05/21 01:14:49;;;;;;;7.97;4.30;;;;;;;14.06;78.96;99666.94;5035369;28;20169;-85
2022/05/21 01:17:17;;;;;;;9.13;4.20;;;;;;;12.09;79.56;99362.47;5031522;28;20186;-87
2022/05/21 01:19:58;;;;;;;9.30;4.40;;;;;;;14.08;79.80;99672.94;5031456;28;20169;-86
2022/05/21 01:22:29;;;;;;;8.07;4.00;;;;;;;13.72;81.18;99613.13;5031356;28;20154;-86
2022/05/21 01:24:55;;;;;;;8.67;4.20;;;;;;;13.93;81.48;99657.13;5031323;28;20158;-87
2022/05/21 01:27:22;;;;;;;5.87;4.00;;;;;;;13.21;81.99;99513.84;5031483;28;20523;-86
2022/05/21 01:29:51;;;;;;;7.33;3.97;;;;;;;14.04;82.22;99651.59;5030327;28;20268;-86
2022/05/21 01:32:18;;;;;;;7.07;4.20;;;;;;;10.59;81.77;99054.34;5030059;28;20750;-87
2022/05/21 01:34:43;;;;;;;12.17;4.10;;;;;;;13.10;83.86;99514.31;5030003;28;20215;-86
2022/05/21 01:37:09;;;;;;;5.77;3.93;;;;;;;12.27;85.23;99380.91;5031883;28;20183;-87
2022/05/21 01:39:34;;;;;;;8.10;4.30;;;;;;;13.33;85.01;99580.41;5051527;28;20176;-87
2022/05/21 01:42:00;;;;;;;7.93;4.10;;;;;;;13.73;86.84;99650.50;5051105;28;20175;-88
2022/05/21 01:44:40;;;;;;;8.13;4.50;;;;;;;12.37;87.25;99443.91;5051104;28;20281;-85
2022/05/21 01:47:12;;;;;;;8.43;4.20;;;;;;;12.61;87.35;99464.22;5050629;28;20304;-86
2022/05/21 01:49:39;;;;;;;7.70;4.10;;;;;;;13.13;87.41;99545.78;5051517;28;20170;-86
2022/05/21 01:52:06;;;;;;;10.23;4.57;;;;;;;13.27;87.33;99554.75;5035436;28;20546;-87
2022/05/21 01:54:33;;;;;;;8.80;4.50;;;;;;;12.31;88.04;99395.44;5055112;28;20165;-87
2022/05/21 01:56:58;;;;;;;8.70;4.20;;;;;;;12.44;90.64;99427.22;5055112;28;20161;-86
2022/05/21 01:59:25;;;;;;;8.37;4.40;;;;;;;13.64;91.20;99634.91;5056123;28;20165;-86
2022/05/21 02:01:50;;;;;;;12.00;4.90;;;;;;;11.82;91.37;99310.69;5059327;28;20165;-87
2022/05/21 02:04:16;;;;;;;9.40;4.27;;;;;;;12.99;91.50;99526.63;5059336;28;20214;-86
2022/05/21 02:06:42;;;;;;;9.67;4.07;;;;;;;11.97;92.93;99356.94;5053743;28;20179;-87
2022/05/21 02:09:08;;;;;;;5.87;4.40;;;;;;;11.43;93.77;99284.69;5056603;28;20153;-86
2022/05/21 02:11:34;;;;;;;6.20;4.30;;;;;;;11.55;93.83;99307.09;5059734;28;20166;-86
2022/05/21 02:13:59;;;;;;;8.30;4.43;;;;;;;12.72;95.82;99495.97;5058384;28;20246;-87
2022/05/21 02:16:24;;;;;;;7.37;4.20;;;;;;;13.29;96.66;99591.28;5055218;28;20580;-85
2022/05/21 02:18:50;;;;;;;9.20;4.50;;;;;;;12.47;95.46;99441.69;5056452;28;20162;-86
2022/05/21 02:21:17;;;;;;;7.10;4.27;;;;;;;12.24;93.67;99418.00;5059466;28;20172;-86
2022/05/21 02:23:43;;;;;;;6.20;4.17;;;;;;;12.34;95.85;99451.38;5056965;28;20258;-86
2022/05/21 02:26:08;;;;;;;7.50;4.33;;;;;;;10.61;96.32;99166.63;5052994;28;20197;-86
2022/05/21 02:28:34;;;;;;;7.17;4.27;;;;;;;12.32;98.50;99493.63;5054222;28;20161;-87
2022/05/21 02:30:59;;;;;;;7.77;4.37;;;;;;;11.69;100.00;99418.44;5054215;28;20211;-87
2022/05/21 02:33:24;;;;;;;8.03;4.20;;;;;;;10.79;100.00;99240.78;5058379;28;20181;-87
2022/05/21 02:35:50;;;;;;;10.23;4.30;;;;;;;12.71;100.00;99562.84;5071294;28;20149;-85
2022/05/21 02:41:12;;;;;;;10.13;4.33;;;;;;;11.27;98.90;99328.84;5012717;28;20547;-87
2022/05/21 02:43:37;;;;;;;8.87;4.20;;;;;;;11.85;100.00;99468.09;5012357;28;20249;-87
2022/05/21 02:46:03;;;;;;;8.00;3.83;;;;;;;12.55;97.17;99544.44;5012262;28;20265;-87
2022/05/21 02:48:29;;;;;;;8.20;4.00;;;;;;;10.96;95.47;99289.56;4979039;28;20619;-87
2022/05/21 02:50:55;;;;;;;8.80;4.30;;;;;;;13.00;96.26;99617.28;4992809;28;20233;-87
2022/05/21 02:53:21;;;;;;;10.17;3.90;;;;;;;10.77;98.46;99261.78;4992125;28;20251;-88
2022/05/21 02:55:47;;;;;;;8.77;4.30;;;;;;;10.25;99.62;99218.25;5000918;28;20190;-86
2022/05/21 02:58:15;;;;;;;9.73;4.33;;;;;;;12.41;97.38;99567.59;5011722;28;20857;-86
2022/05/21 03:00:42;;;;;;;8.20;4.10;;;;;;;12.55;98.00;99623.16;5012120;28;20673;-86
2022/05/21 03:03:07;;;;;;;7.30;4.10;;;;;;;12.56;96.20;99625.72;5011661;28;20162;-87
2022/05/21 03:05:33;;;;;;;9.57;4.27;;;;;;;11.13;94.91;99384.81;5011956;28;20719;-86
2022/05/21 03:10:20;;;;;;;8.13;4.10;;;;;;;12.55;93.15;99602.84;5012305;28;20335;-86
2022/05/21 03:10:51;;;;;;;8.53;4.47;;;;;;;10.91;91.80;99293.56;4998450;28;20191;-86
2022/05/21 03:13:17;;;;;;;7.60;4.70;;;;;;;10.59;89.59;99231.50;4992309;28;20210;-86
2022/05/21 03:15:42;;;;;;;8.33;4.40;;;;;;;11.14;89.08;99310.56;4992347;28;20175;-86
2022/05/21 03:18:11;;;;;;;8.07;4.60;;;;;;;12.22;92.64;99537.22;5037373;28;20181;-86
2022/05/21 03:20:37;;;;;;;8.63;4.47;;;;;;;12.82;92.06;99616.59;5035953;28;20165;-87
2022/05/21 03:23:03;;;;;;;10.13;4.20;;;;;;;10.61;91.75;99280.53;5037671;28;20196;-87
2022/05/21 03:25:29;;;;;;;9.83;4.50;;;;;;;12.09;91.35;99518.91;5068215;28;20166;-87
2022/05/21 03:27:55;;;;;;;10.07;4.23;;;;;;;12.08;90.17;99469.84;5062555;28;20161;-87
2022/05/21 03:30:23;;;;;;;8.23;4.10;;;;;;;10.95;88.12;99287.84;5054590;28;20212;-88
2022/05/21 03:32:49;;;;;;;6.83;4.30;;;;;;;10.87;87.07;99263.88;5053782;28;20197;-87
2022/05/21 03:35:16;;;;;;;9.90;4.30;;;;;;;11.06;86.59;99333.06;5053016;28;20330;-87
2022/05/21 03:37:42;;;;;;;7.13;4.03;;;;;;;10.76;86.39;99272.69;5052177;28;20199;-87
2022/05/21 03:40:10;;;;;;;5.57;3.80;;;;;;;10.94;86.06;99359.53;5053091;28;20173;-87
2022/05/21 03:42:37;;;;;;;7.07;3.83;;;;;;;11.53;88.13;99503.94;5053429;28;20173;-87
2022/05/21 03:45:03;;;;;;;6.33;3.73;;;;;;;12.05;89.48;99604.22;5052504;28;20169;-85
2022/05/21 03:47:29;;;;;;;8.47;4.40;;;;;;;12.12;91.25;99626.50;5053385;28;20712;-86
2022/05/21 03:49:54;;;;;;;6.63;4.00;;;;;;;11.61;92.83;99545.69;5053223;28;20264;-86
2022/05/21 03:52:20;;;;;;;7.77;4.00;;;;;;;10.82;94.95;99422.38;5053053;28;20189;-86
2022/05/21 03:54:45;;;;;;;7.83;4.30;;;;;;;9.42;93.88;99160.72;5053691;28;20540;-87
2022/05/21 03:57:12;;;;;;;7.57;4.20;;;;;;;11.41;93.11;99500.88;5052570;28;20181;-87
2022/05/21 03:59:37;;;;;;;8.23;4.70;;;;;;;10.91;92.17;99383.06;5034601;28;20174;-87
2022/05/21 04:02:03;;;;;;;14.10;6.83;;;;;;;10.48;91.43;99328.91;5053169;28;20224;-87
2022/05/21 04:04:29;;;;;;;11.87;7.43;;;;;;;11.94;92.40;99534.41;5053332;28;20177;-87
2022/05/21 04:06:55;;;;;;;12.03;7.33;;;;;;;10.92;91.35;99353.56;5052757;28;20177;-88
2022/05/21 04:09:20;;;;;;;10.43;6.07;;;;;;;12.76;88.73;99598.56;5052495;28;20192;-85
2022/05/21 04:11:45;;;;;;;11.37;6.53;;;;;;;11.55;85.42;99353.59;5035436;28;20207;-86
2022/05/21 04:14:14;;;;;;;13.53;6.07;;;;;;;11.95;83.83;99381.38;5052040;28;20193;-86
2022/05/21 04:16:40;;;;;;;13.60;7.13;;;;;;;10.60;83.12;99177.56;5053585;28;20154;-87
2022/05/21 04:19:05;;;;;;;10.63;6.67;;;;;;;12.91;85.31;99578.84;5052804;28;20176;-86
2022/05/21 04:21:30;;;;;;;10.83;7.00;;;;;;;12.66;85.33;99505.91;5052623;28;20177;-86
2022/05/21 04:23:56;;;;;;;11.40;7.20;;;;;;;11.35;84.68;99259.84;5052797;28;20168;-88
2022/05/21 04:26:22;;;;;;;10.50;6.33;;;;;;;11.36;82.84;99289.47;5052732;28;20218;-87
2022/05/21 04:28:47;;;;;;;11.33;5.53;;;;;;;12.17;82.07;99416.91;5035161;28;20177;-88
2022/05/21 04:31:12;;;;;;;8.97;6.20;;;;;;;11.56;79.83;99259.00;5054164;28;20262;-88
2022/05/21 04:33:38;;;;;;;9.53;6.00;;;;;;;11.55;76.03;99188.81;5054530;28;20190;-88
2022/05/21 04:36:18;;;;;;;7.40;4.87;;;;;;;12.55;74.03;99349.75;5036989;28;20633;-89
2022/05/21 04:38:45;;;;;;;9.60;4.97;;;;;;;11.78;74.87;99248.00;5053433;28;20157;-88
2022/05/21 04:41:11;;;;;;;8.23;4.90;;;;;;;10.17;79.12;99040.88;5055343;28;20161;-87
2022/05/21 04:43:36;;;;;;;9.97;5.40;;;;;;;12.61;79.83;99435.47;5057110;28;20174;-89
2022/05/21 04:46:02;;;;;;;12.30;5.53;;;;;;;13.56;82.27;99627.88;5054319;28;20178;-88
2022/05/21 04:48:28;;;;;;;9.27;6.00;;;;;;;11.63;84.78;99309.13;5052231;28;20248;-87
2022/05/21 04:50:59;;;;;;;13.57;5.87;;;;;;;13.31;87.01;99597.28;5051967;28;20197;-88
2022/05/21 04:53:25;;;;;;;12.03;5.60;;;;;;;11.91;87.66;99310.19;5054409;28;20188;-87
2022/05/21 04:55:50;;;;;;;14.07;5.90;;;;;;;13.50;88.14;99588.63;5065297;28;20207;-86
2022/05/21 04:58:15;;;;;;;11.40;5.67;;;;;;;13.91;83.41;99568.00;5067312;28;20164;-86
2022/05/21 05:00:41;;;;;;;10.63;6.20;;;;;;;12.80;79.80;99326.06;5052494;28;20665;-88
2022/05/21 05:03:11;;;;;;;10.87;5.63;;;;;;;13.80;80.96;99512.47;5052201;28;20161;-87
2022/05/21 05:05:39;;;;;;;8.37;5.80;;;;;;;12.55;83.12;99326.03;5030844;28;20190;-88
2022/05/21 05:08:05;;;;;;;10.63;5.80;;;;;;;14.46;83.21;99638.56;5032023;28;20170;-88
2022/05/21 05:10:31;;;;;;;10.67;6.03;;;;;;;12.46;82.05;99272.38;5030871;28;20660;-87
2022/05/21 05:12:57;;;;;;;9.63;6.17;;;;;;;13.42;80.76;99384.94;5030660;28;20201;-88
2022/05/21 05:15:22;;;;;;;10.50;5.63;;;;;;;11.63;80.16;99100.34;5030819;28;20668;-89
2022/05/21 05:17:47;;;;;;;9.23;5.80;;;;;;;10.91;83.63;98998.13;5030763;28;20546;-88
2022/05/21 05:20:13;;;;;;;8.93;5.80;;;;;;;13.80;82.54;99509.94;5032662;28;20165;-87
2022/05/21 05:22:38;;;;;;;10.07;5.93;;;;;;;13.57;81.51;99435.41;5032250;28;20241;-88
2022/05/21 05:25:05;;;;;;;9.53;5.57;;;;;;;14.60;81.10;99624.59;5030969;28;20174;-88
2022/05/21 05:27:30;;;;;;;12.67;5.87;;;;;;;12.89;80.43;99285.69;5061214;28;20165;-86
2022/05/21 05:29:56;;;;;;;10.13;5.27;;;;;;;14.26;81.51;99519.88;5078435;28;20203;-87
2022/05/21 05:32:21;;;;;;;7.23;5.40;;;;;;;12.52;83.58;99189.69;5070738;28;20161;-86
2022/05/21 05:34:47;;;;;;;11.00;5.60;;;;;;;13.58;82.52;99389.69;5070116;28;20165;-86
2022/05/21 05:37:13;;;;;;;7.67;5.23;;;;;;;13.02;80.76;99287.81;5058483;28;20227;-88
2022/05/21 05:39:38;;;;;;;9.17;5.77;;;;;;;14.48;79.88;99522.28;5050420;28;20173;-89
2022/05/21 05:42:04;;;;;;;8.73;5.60;;;;;;;13.98;77.10;99389.19;5020989;28;20229;-88
2022/05/21 05:44:31;;;;;;;7.50;5.40;;;;;;;15.75;74.29;99622.88;5036224;28;20256;-87
2022/05/21 05:46:57;;;;;;;10.43;5.73;;;;;;;14.85;72.95;99447.78;5036323;28;20217;-86
2022/05/21 05:49:22;;;;;;;6.43;5.23;;;;;;;15.21;70.59;99443.66;5036133;28;20654;-90
2022/05/21 05:51:48;;;;;;;9.67;5.40;;;;;;;15.39;73.16;99530.84;5046037;28;20193;-89
2022/05/21 05:54:13;;;;;;;12.30;5.30;;;;;;;14.13;72.82;99308.19;5055032;28;20284;-88
2022/05/21 05:56:43;;;;;;;9.03;5.77;;;;;;;16.23;72.58;99625.81;5055768;28;20234;-89
2022/05/21 06:02:57;;;;;;;8.30;5.10;;;;;;;14.69;66.11;99197.66;5057734;28;20214;-89
2022/05/21 06:04:40;;;;;;;7.60;4.70;;;;;;;15.59;67.09;99407.22;5057098;28;20170;-89
2022/05/21 06:07:05;;;;;;;7.90;4.60;;;;;;;16.05;66.75;99470.44;5056165;28;20622;-89
2022/05/21 06:09:32;;;;;;;9.13;4.70;;;;;;;14.68;65.16;99185.72;5055550;28;20164;-87
2022/05/21 06:11:58;;;;;;;7.33;4.53;;;;;;;15.82;63.11;99298.84;5054189;28;20331;-87
2022/05/21 06:14:25;;;;;;;8.13;4.87;;;;;;;17.81;63.76;99610.53;5056900;28;20207;-87
2022/05/21 06:16:51;;;;;;;8.10;4.60;;;;;;;15.54;64.46;99263.38;5054481;28;20161;-87
2022/05/21 06:19:19;;;;;;;8.83;4.40;;;;;;;16.77;62.32;99494.19;5056102;28;20685;-86
2022/05/21 06:21:45;;;;;;;8.00;4.47;;;;;;;16.58;62.82;99355.75;5054434;28;20522;-85
2022/05/21 06:24:10;;;;;;;8.70;4.10;;;;;;;18.08;60.40;99526.47;5055031;28;20164;-87
2022/05/21 06:26:35;;;;;;;9.03;4.77;;;;;;;17.89;59.61;99451.88;5053625;28;20711;-86
2022/05/21 06:29:01;;;;;;;6.37;4.50;;;;;;;18.12;58.29;99461.63;5054751;28;20177;-88
2022/05/21 06:31:26;;;;;;;14.30;4.17;;;;;;;18.06;57.90;99392.38;5054479;28;20239;-86
2022/05/21 06:33:52;;;;;;;13.37;4.20;;;;;;;17.97;57.03;99393.91;5054450;28;20200;-87
2022/05/21 06:36:18;;;;;;;8.13;4.50;;;;;;;17.92;56.49;99345.19;5052480;28;20208;-85
2022/05/21 06:38:47;;;;;;;7.67;4.07;;;;;;;17.86;53.59;99287.91;5054552;28;20186;-87
2022/05/21 06:41:12;;;;;;;5.40;3.60;;;;;;;17.35;54.43;99280.34;5055884;28;20524;-87
2022/05/21 06:43:38;;;;;;;5.33;3.67;;;;;;;16.77;54.49;99150.72;5054112;28;20169;-86
2022/05/21 06:46:04;;;;;;;5.43;3.67;;;;;;;18.66;55.03;99470.94;5052827;28;20172;-86
2022/05/21 06:48:29;;;;;;;4.53;3.53;;;;;;;18.95;53.85;99449.06;5055223;28;20279;-87
2022/05/21 06:50:55;;;;;;;6.07;3.40;;;;;;;17.89;52.87;99186.34;5055315;28;20173;-87
2022/05/21 06:53:20;;;;;;;4.53;3.20;;;;;;;18.96;51.43;99295.94;5055638;28;20734;-87
2022/05/21 06:55:46;;;;;;;8.00;3.10;;;;;;;20.84;50.46;99566.31;5045899;28;20238;-86
2022/05/21 06:58:12;;;;;;;9.67;3.30;;;;;;;19.22;48.44;99259.41;5036489;28;20190;-87
2022/05/21 07:00:38;;;;;;;6.20;2.80;;;;;;;18.85;47.30;99135.13;5034563;28;20228;-87
2022/05/21 07:03:03;;;;;;;6.73;3.00;;;;;;;18.66;45.35;99114.47;5034419;28;20216;-87
2022/05/21 07:08:20;;;;;;;4.13;2.77;;;;;;;21.60;44.45;99528.81;5045361;28;20172;-86
2022/05/21 07:10:46;;;;;;;3.50;2.67;;;;;;;20.89;42.77;99343.28;5035342;28;20171;-87
2022/05/21 07:13:12;;;;;;;4.77;2.83;;;;;;;21.88;41.27;99539.19;5034141;28;20194;-87
2022/05/21 07:15:37;;;;;;;4.10;2.50;;;;;;;20.20;42.46;99229.91;5048370;28;20180;-84
2022/05/21 07:18:03;;;;;;;4.53;2.90;;;;;;;19.16;40.81;98986.47;5064920;28;20637;-87
2022/05/21 07:20:30;;;;;;;4.53;2.67;;;;;;;20.67;41.00;99325.22;5054068;28;20169;-86
2022/05/21 07:22:55;;;;;;;10.47;3.07;;;;;;;20.18;41.64;99198.22;5054517;28;20193;-87
2022/05/21 07:25:24;;;;;;;4.33;2.70;;;;;;;22.03;40.23;99439.47;5052055;28;20184;-87
2022/05/21 07:27:50;;;;;;;5.30;2.80;;;;;;;21.34;39.79;99301.28;5054573;28;20165;-89
2022/05/21 07:30:16;;;;;;;8.63;3.33;;;;;;;22.86;40.67;99511.53;5053320;28;20180;-87
2022/05/21 07:32:44;;;;;;;6.60;2.67;;;;;;;20.86;40.05;99152.81;5053737;28;20193;-87
2022/05/21 07:35:13;;;;;;;4.20;2.73;;;;;;;23.06;41.10;99505.41;5056276;28;20248;-87
2022/05/21 07:37:39;;;;;;;4.80;2.70;;;;;;;21.26;38.79;99215.41;5053308;28;20648;-87
2022/05/21 07:40:06;;;;;;;4.77;2.50;;;;;;;22.99;37.30;99502.00;5036247;28;20172;-88
2022/05/21 07:42:32;;;;;;;3.77;2.50;;;;;;;20.38;38.25;99102.25;5035955;28;20173;-86
2022/05/21 07:44:58;;;;;;;6.43;2.57;;;;;;;23.02;37.68;99409.00;5036814;28;20166;-87
2022/05/21 07:47:24;;;;;;;3.67;2.60;;;;;;;22.67;37.55;99321.47;5054667;28;20247;-88
2022/05/21 07:49:56;;;;;;;3.87;2.60;;;;;;;23.82;37.24;99431.69;5031232;28;20174;-88
2022/05/21 07:52:27;;;;;;;8.73;4.63;;;;;;;24.49;36.68;99480.22;5033009;28;20178;-88
2022/05/21 07:54:53;;;;;;;16.37;10.60;;;;;;;23.90;36.98;99419.53;5032235;28;20181;-88
2022/05/21 07:57:19;;;;;;;11.33;6.10;;;;;;;22.60;37.08;99179.53;5032417;28;20198;-88
2022/05/21 07:59:45;;;;;;;13.30;6.03;;;;;;;23.75;36.02;99323.19;5051262;28;20197;-89
2022/05/21 08:02:13;;;;;;;9.23;4.87;;;;;;;24.71;35.74;99455.78;5051987;28;20169;-88
2022/05/21 08:04:39;;;;;;;10.37;3.97;;;;;;;24.05;35.32;99372.84;5052043;28;20231;-89
2022/05/21 08:07:04;;;;;;;17.30;6.53;;;;;;;24.63;34.66;99442.94;5053329;28;20197;-89
2022/05/21 08:09:30;;;;;;;5.10;2.80;;;;;;;23.75;34.16;99236.13;5052305;28;20622;-88
2022/05/21 08:11:55;;;;;;;5.37;2.90;;;;;;;24.15;34.10;99236.50;5052439;28;20197;-88
2022/05/21 08:14:21;;;;;;;6.97;2.70;;;;;;;24.30;33.47;99227.69;5052143;28;20193;-88
2022/05/21 08:16:47;;;;;;;5.73;3.10;;;;;;;23.07;33.78;99047.44;5053086;28;20514;-88
2022/05/21 08:19:13;;;;;;;4.17;2.50;;;;;;;24.14;33.03;99164.09;5043792;28;20646;-88
2022/05/21 08:21:39;;;;;;;4.67;2.50;;;;;;;25.50;32.38;99351.88;5033520;28;20249;-88
2022/05/21 08:26:59;;;;;;;5.53;2.20;;;;;;;24.99;31.84;99369.09;5036014;28;20181;-88
2022/05/21 08:29:35;;;;;;;6.53;2.30;;;;;;;25.94;32.55;99441.88;5035875;28;20165;-89
2022/05/21 08:32:03;;;;;;;6.10;2.80;;;;;;;24.91;31.27;99176.69;5053273;28;20621;-88
2022/05/21 08:34:32;;;;;;;2.90;2.20;;;;;;;26.47;29.94;99447.84;5039845;28;20222;-88
2022/05/21 08:36:57;;;;;;;5.23;2.50;;;;;;;24.84;31.03;99171.63;5021530;28;20948;-89
2022/05/21 08:39:23;;;;;;;5.37;2.30;;;;;;;23.92;30.67;98990.25;5038215;28;20169;-88
2022/05/21 08:41:57;;;;;;;4.80;2.63;;;;;;;24.60;32.22;99040.84;5052704;28;20169;-89
2022/05/21 08:44:44;;;;;;;5.38;2.80;;;;;;;26.88;32.11;99437.50;5059461;28;20166;-89
2022/05/21 08:47:32;;;;;;;5.63;2.58;;;;;;;25.47;32.42;99226.63;5058972;28;20180;-90
2022/05/21 08:50:09;;;;;;;6.27;3.00;;;;;;;26.36;31.87;99398.75;5057869;28;20672;-89
2022/05/21 08:53:02;;;;;;;7.63;3.00;;;;;;;26.77;32.02;99423.84;5052701;28;20680;-88
2022/05/21 08:55:37;;;;;;;8.77;2.97;;;;;;;27.27;31.89;99413.22;5036382;28;20169;-88
2022/05/21 08:58:26;;;;;;;9.35;3.20;;;;;;;26.55;31.72;99235.59;5034559;28;20166;-88
2022/05/21 09:00:53;;;;;;;3.67;2.70;;;;;;;27.76;31.17;99365.22;5041975;28;20181;-89
2022/05/21 09:03:21;;;;;;;5.15;2.80;;;;;;;28.21;30.58;99412.63;5052097;28;20197;-88
2022/05/21 09:06:12;;;;;;;3.40;2.55;;;;;;;28.24;30.32;99400.34;5052592;28;20168;-88
2022/05/21 09:08:43;;;;;;;11.88;3.30;;;;;;;28.43;30.53;99390.28;5044685;28;20185;-90
2022/05/21 09:11:17;;;;;;;3.92;2.40;;;;;;;27.75;30.49;99316.66;5016261;28;20169;-89
2022/05/21 09:13:59;;;;;;;3.65;2.55;;;;;;;27.75;30.72;99394.72;5021592;28;20204;-88
2022/05/21 09:19:09;;;;;;;5.45;2.80;;;;;;;27.61;30.67;99376.84;4991716;28;20255;-88
2022/05/21 09:21:45;;;;;;;4.75;2.63;;;;;;;26.71;30.22;99198.84;5004734;28;20699;-89
2022/05/21 09:24:33;;;;;;;4.63;2.55;;;;;;;28.18;30.16;99381.44;5014101;28;20247;-87
2022/05/21 09:26:59;;;;;;;4.25;2.67;;;;;;;27.65;30.42;99342.06;5016207;28;20173;-87
2022/05/21 09:29:33;;;;;;;4.22;2.60;;;;;;;27.64;30.60;99305.69;5019725;28;20197;-88
2022/05/21 09:32:14;;;;;;;5.63;2.65;;;;;;;28.01;30.45;99366.25;5032173;28;20229;-87
2022/05/21 09:34:40;;;;;;;4.00;2.50;;;;;;;27.27;30.29;99238.16;5020102;28;20178;-88
2022/05/21 09:37:16;;;;;;;5.50;2.40;;;;;;;28.49;30.15;99362.28;5020237;28;20191;-87
2022/05/21 09:39:42;;;;;;;3.35;2.20;;;;;;;28.38;28.92;99364.34;4997195;28;20185;-88
2022/05/21 09:45:22;;;;;;;6.53;2.50;;;;;;;28.69;28.63;99361.72;5006443;28;20240;-89
2022/05/21 09:45:32;;;;;;;3.60;2.30;;;;;;;28.49;27.28;99359.69;5036516;28;20181;-88
2022/05/21 09:48:03;;;;;;;3.40;2.15;;;;;;;28.43;27.79;99352.03;5017339;28;20483;-87
2022/05/21 09:50:30;;;;;;;4.05;2.58;;;;;;;28.39;27.97;99352.19;5030939;28;20252;-87
2022/05/21 09:52:56;;;;;;;3.35;2.40;;;;;;;28.27;28.37;99352.53;5016973;28;20207;-86
2022/05/21 09:55:23;;;;;;;3.38;2.30;;;;;;;28.28;27.82;99342.09;5033587;28;20194;-87
2022/05/21 09:57:49;;;;;;;4.38;2.10;;;;;;;28.55;27.28;99338.66;5040784;28;20237;-86
2022/05/21 10:00:18;;;;;;;4.43;2.30;;;;;;;28.58;28.19;99337.72;5048744;28;20207;-87
2022/05/21 10:02:46;;;;;;;2.55;2.22;;;;;;;28.40;28.57;99356.50;5036513;28;20219;-87
2022/05/21 10:05:18;;;;;;;4.60;2.20;;;;;;;28.01;28.24;99332.41;5038230;28;20164;-88
2022/05/21 10:10:59;;;;;;;48.42;5.90;;;;;;;28.67;27.73;99335.75;5035955;28;20194;-87
2022/05/21 10:13:41;;;;;;;3.45;2.28;;;;;;;29.04;27.74;99337.16;5035557;28;20244;-87
2022/05/21 10:16:21;;;;;;;6.00;4.00;;;;;;;28.80;28.20;99331.00;5039818;28;20175;-87
2022/05/21 10:19:02;;;;;;;6.68;3.83;;;;;;;27.32;27.48;99088.94;5041131;28;20206;-89
2022/05/21 10:21:58;;;;;;;3.78;2.70;;;;;;;28.74;26.21;99288.63;5054887;28;20185;-88
2022/05/21 10:24:38;;;;;;;3.90;2.85;;;;;;;28.55;27.18;99333.47;5038371;28;20176;-87
2022/05/21 10:27:07;;;;;;;13.50;3.03;;;;;;;28.60;28.16;99326.34;5037652;28;20176;-88
2022/05/21 10:29:47;;;;;;;3.42;2.45;;;;;;;28.18;27.48;99324.16;5021044;28;20261;-88
2022/05/21 10:32:17;;;;;;;2.80;2.30;;;;;;;27.98;27.93;99317.75;5056699;28;20180;-88
2022/05/21 10:35:04;;;;;;;2.97;2.30;;;;;;;26.72;27.85;99091.47;5056061;28;20178;-87
2022/05/21 10:37:39;;;;;;;4.55;2.13;;;;;;;27.79;27.85;99219.41;5063318;28;20163;-87
2022/05/21 10:40:18;;;;;;;4.30;2.60;;;;;;;27.89;28.23;99310.19;5056324;28;20187;-87
2022/05/21 10:43:08;;;;;;;3.42;2.20;;;;;;;27.81;28.59;99306.09;5039009;28;20160;-88
2022/05/21 10:45:41;;;;;;;3.05;2.25;;;;;;;26.91;28.19;99133.41;5041683;28;20168;-86
2022/05/21 10:48:12;;;;;;;4.93;2.30;;;;;;;27.88;28.10;99300.66;5040744;28;20279;-88
2022/05/21 10:50:56;;;;;;;5.32;2.33;;;;;;;27.91;26.82;99302.31;5044872;28;20179;-88
2022/05/21 10:53:44;;;;;;;4.07;2.53;;;;;;;27.89;27.35;99296.31;5046203;28;20254;-89
2022/05/21 10:56:43;;;;;;;6.30;2.97;;;;;;;28.12;26.95;99291.34;5044655;28;20659;-88
2022/05/21 10:59:09;;;;;;;3.65;2.40;;;;;;;28.28;26.92;99286.53;5058280;28;20168;-89
2022/05/21 11:01:58;;;;;;;6.25;2.10;;;;;;;27.46;26.11;99124.97;5056437;28;20178;-88
2022/05/21 11:04:41;;;;;;;3.47;2.15;;;;;;;28.57;25.80;99295.19;5055650;28;20172;-87
2022/05/21 11:07:33;;;;;;;6.68;2.40;;;;;;;28.77;26.29;99292.00;5056641;28;20171;-87
2022/05/21 11:10:06;;;;;;;9.80;2.83;;;;;;;28.66;27.04;99294.06;5056089;28;20536;-88
2022/05/21 11:12:39;;;;;;;4.60;2.65;;;;;;;28.77;26.90;99294.59;5056787;28;20183;-88
2022/05/21 11:15:29;;;;;;;4.68;2.50;;;;;;;29.02;26.67;99286.84;5061644;28;20173;-88
2022/05/21 11:18:05;;;;;;;5.53;2.42;;;;;;;29.25;25.97;99294.78;5078296;28;20173;-89
2022/05/21 11:20:42;;;;;;;5.10;2.40;;;;;;;29.44;25.40;99255.88;5075747;28;20175;-89
2022/05/21 11:23:21;;;;;;;4.60;2.40;;;;;;;27.12;24.63;98836.53;5057480;28;20684;-88
2022/05/21 11:25:49;;;;;;;7.32;2.20;;;;;;;30.19;24.50;99286.22;5060775;28;20173;-89
2022/05/21 11:28:43;;;;;;;4.53;2.20;;;;;;;30.37;24.56;99186.28;5063481;28;20164;-89
2022/05/21 11:39:44;;;;;;;3.22;2.00;;;;;;;32.42;22.66;99134.34;5057322;28;20354;-88
2022/05/21 11:42:17;;;;;;;4.82;2.05;;;;;;;33.01;22.68;99128.75;5056500;28;20181;-89
2022/05/21 11:44:56;;;;;;;4.00;2.22;;;;;;;33.81;22.21;99247.09;5057424;28;20173;-88
2022/05/21 11:47:21;;;;;;;2.45;2.03;;;;;;;34.51;22.54;99237.97;5057874;28;20243;-89
2022/05/21 11:49:55;;;;;;;5.47;1.98;;;;;;;34.92;21.50;99239.13;5057585;28;20618;-89
2022/05/21 11:52:27;;;;;;;3.80;1.98;;;;;;;34.59;21.09;99231.38;5055995;28;20168;-90
2022/05/21 11:55:14;;;;;;;3.53;2.00;;;;;;;33.23;21.88;99192.34;5055435;28;20200;-91
2022/05/21 11:57:53;;;;;;;3.70;1.95;;;;;;;33.34;21.99;99217.19;5055553;28;20169;-90
2022/05/21 12:00:18;;;;;;;4.72;2.20;;;;;;;33.46;21.57;99217.38;5056296;28;20611;-88
2022/05/21 12:02:53;;;;;;;3.65;2.10;;;;;;;33.37;21.50;99215.25;5055783;28;20172;-89
2022/05/21 12:05:34;;;;;;;3.28;2.22;;;;;;;34.06;21.15;99207.19;5041961;28;20232;-90
2022/05/21 12:08:21;;;;;;;3.25;2.00;;;;;;;35.16;20.10;99208.75;5035149;28;20173;-89
2022/05/21 12:11:06;;;;;;;5.38;2.42;;;;;;;34.66;21.27;99105.63;5036245;28;20270;-90